Altona, New York
Current Conditions -  °F | °C
As of 12:53 PM on Monday 24 Nov 2014 (Local Time) from KPBG Reporting Station
Clear Clear  
Wind Chill: 61°   Ceiling: Unl
Heat Index: 61°   Visibility: 10mi
Dew Point: 55°   Wind: 20mph
Humidity: 81%   Direction: 150°SSE
Pressure: 29.37"   Gusts: 29mph
Location:  44.89°N, 73.66°W
Report Text: KPBG 241753Z AUTO 15017G25KT 10SM CLR 16/13 A2937 RMK AO2 PK WND 16026/1739 SLP947 60006 T01610128 10161 20072 56035
Loading
Personal Weather Stations






























Interactive Weather Map New forecast layout! Learn more

10-Day Weather Forecast

Advertisements
Track Severe Weather on mobile